createdAt,value
2019-03-09T00:00:15.349Z,1007.44
2019-03-09T00:01:15.330Z,1007.49
2019-03-09T00:02:15.189Z,1007.44
2019-03-09T00:03:15.076Z,1007.47
2019-03-09T00:04:14.998Z,1007.44
2019-03-09T00:05:14.970Z,1007.42
2019-03-09T00:06:15.942Z,1007.43
2019-03-09T00:07:14.796Z,1007.44
2019-03-09T00:08:14.732Z,1007.40
2019-03-09T00:09:14.698Z,1007.40
2019-03-09T00:10:14.482Z,1007.34
2019-03-09T00:11:14.436Z,1007.36
2019-03-09T00:12:14.275Z,1007.36
2019-03-09T00:13:14.305Z,1007.35
2019-03-09T00:14:14.407Z,1007.23
2019-03-09T00:15:15.150Z,1007.28
2019-03-09T00:16:14.072Z,1007.28
2019-03-09T00:17:13.904Z,1007.30
2019-03-09T00:18:13.805Z,1007.25
2019-03-09T00:19:13.806Z,1007.32
2019-03-09T00:20:13.693Z,1007.26
2019-03-09T00:21:13.552Z,1007.27
2019-03-09T00:22:13.493Z,1007.24
2019-03-09T00:23:13.404Z,1007.27
2019-03-09T00:24:13.370Z,1007.31
2019-03-09T00:25:13.285Z,1007.27
2019-03-09T00:26:13.153Z,1007.29
2019-03-09T00:27:13.065Z,1007.23
2019-03-09T00:28:14.091Z,1007.17
2019-03-09T00:29:12.898Z,1007.24
2019-03-09T00:30:12.851Z,1007.20
2019-03-09T00:31:12.772Z,1007.24
2019-03-09T00:32:12.623Z,1007.17
2019-03-09T00:33:12.530Z,1007.26
2019-03-09T00:34:12.410Z,1007.20
2019-03-09T00:35:12.322Z,1007.27
2019-03-09T00:36:12.224Z,1007.18
2019-03-09T00:37:12.136Z,1007.26
2019-03-09T00:38:12.061Z,1007.22
2019-03-09T00:39:11.971Z,1007.21
2019-03-09T00:40:11.934Z,1007.15
2019-03-09T00:41:11.790Z,1007.20
2019-03-09T00:42:11.734Z,1007.17
2019-03-09T00:43:11.627Z,1007.19
2019-03-09T00:44:11.544Z,1007.22
2019-03-09T00:45:11.477Z,1007.10
2019-03-09T00:46:11.411Z,1007.09
2019-03-09T00:47:11.295Z,1007.09
2019-03-09T00:48:11.208Z,1007.01
2019-03-09T00:49:11.326Z,1007.02
2019-03-09T00:50:11.074Z,1007.06
2019-03-09T00:51:10.947Z,1007.01
2019-03-09T00:52:10.869Z,1006.97
2019-03-09T00:53:10.777Z,1006.93
2019-03-09T00:54:10.701Z,1007.01
2019-03-09T00:55:10.619Z,1006.89
2019-03-09T00:56:10.526Z,1006.87
2019-03-09T00:57:10.439Z,1006.93
2019-03-09T00:58:10.359Z,1006.94
2019-03-09T00:59:10.272Z,1006.92
2019-03-09T01:00:10.201Z,1006.91
2019-03-09T01:01:10.104Z,1006.87
2019-03-09T01:02:10.019Z,1006.84
2019-03-09T01:03:09.928Z,1006.83
2019-03-09T01:04:09.865Z,1006.80
2019-03-09T01:05:09.772Z,1006.78
2019-03-09T01:06:09.678Z,1006.75
2019-03-09T01:07:09.595Z,1006.76
2019-03-09T01:08:09.506Z,1006.68
2019-03-09T01:09:09.420Z,1006.73
2019-03-09T01:10:09.366Z,1006.66
2019-03-09T01:11:09.249Z,1006.61
2019-03-09T01:12:09.173Z,1006.69
2019-03-09T01:13:09.080Z,1006.74
2019-03-09T01:14:09.005Z,1006.70
2019-03-09T01:15:08.924Z,1006.62
2019-03-09T01:16:08.845Z,1006.61
2019-03-09T01:17:08.784Z,1006.67
2019-03-09T01:18:08.700Z,1006.63
2019-03-09T01:19:08.585Z,1006.54
2019-03-09T01:20:08.533Z,1006.53
2019-03-09T01:21:08.414Z,1006.54
2019-03-09T01:22:08.320Z,1006.55
2019-03-09T01:23:08.231Z,1006.48
2019-03-09T01:24:08.151Z,1006.42
2019-03-09T01:25:08.076Z,1006.36
2019-03-09T01:26:07.977Z,1006.42
2019-03-09T01:27:07.899Z,1006.31
2019-03-09T01:28:07.807Z,1006.38
2019-03-09T01:29:07.728Z,1006.26
2019-03-09T01:30:07.672Z,1006.43
2019-03-09T01:31:07.552Z,1006.35
2019-03-09T01:32:07.468Z,1006.21
2019-03-09T01:33:07.388Z,1006.34
2019-03-09T01:34:07.302Z,1006.27
2019-03-09T01:35:07.267Z,1006.21
2019-03-09T01:36:07.135Z,1006.19
2019-03-09T01:37:07.041Z,1006.28
2019-03-09T01:38:06.973Z,1006.26
2019-03-09T01:39:06.877Z,1006.16
2019-03-09T01:40:06.807Z,1006.17
2019-03-09T01:41:06.702Z,1006.14
2019-03-09T01:42:06.621Z,1006.09
2019-03-09T01:43:06.541Z,1006.11
2019-03-09T01:44:06.449Z,1006.10
2019-03-09T01:45:06.384Z,1006.11
2019-03-09T01:46:06.283Z,1006.12
2019-03-09T01:47:06.193Z,1006.06
2019-03-09T01:48:06.114Z,1006.13
2019-03-09T01:49:06.033Z,1006.03
2019-03-09T01:50:06.096Z,1005.95
2019-03-09T01:51:05.852Z,1006.02
2019-03-09T01:52:06.794Z,1005.87
2019-03-09T01:53:05.686Z,1005.87
2019-03-09T01:54:05.606Z,1005.77
2019-03-09T01:55:05.519Z,1005.88
2019-03-09T01:56:05.446Z,1005.77
2019-03-09T01:57:05.355Z,1005.75
2019-03-09T01:58:05.268Z,1005.90
2019-03-09T01:59:05.178Z,1006.06
2019-03-09T02:00:05.087Z,1005.95
2019-03-09T02:01:05.024Z,1005.82
2019-03-09T02:02:04.921Z,1005.81
2019-03-09T02:03:04.840Z,1005.78
2019-03-09T02:04:04.752Z,1005.86
2019-03-09T02:05:04.673Z,1005.84
2019-03-09T02:06:04.598Z,1005.82
2019-03-09T02:07:04.508Z,1005.87
2019-03-09T02:08:04.418Z,1005.81
2019-03-09T02:09:04.339Z,1005.72
2019-03-09T02:10:04.253Z,1005.70
2019-03-09T02:11:04.169Z,1005.57
2019-03-09T02:12:04.079Z,1005.71
2019-03-09T02:13:03.994Z,1005.72
2019-03-09T02:14:03.902Z,1005.73
2019-03-09T02:15:03.823Z,1005.75
2019-03-09T02:16:03.750Z,1005.78
2019-03-09T02:17:03.653Z,1005.83
2019-03-09T02:18:03.572Z,1005.73
2019-03-09T02:19:03.482Z,1005.82
2019-03-09T02:20:03.399Z,1005.73
2019-03-09T02:21:03.337Z,1005.70
2019-03-09T02:22:03.226Z,1005.76
2019-03-09T02:23:03.146Z,1005.69
2019-03-09T02:24:03.056Z,1005.65
2019-03-09T02:25:02.967Z,1005.47
2019-03-09T02:26:02.895Z,1005.56
2019-03-09T02:27:02.801Z,1005.62
2019-03-09T02:28:02.711Z,1005.68
2019-03-09T02:29:02.634Z,1005.61
2019-03-09T02:30:02.551Z,1005.60
2019-03-09T02:31:02.485Z,1005.64
2019-03-09T02:32:02.381Z,1005.57
2019-03-09T02:33:02.301Z,1005.64
2019-03-09T02:34:02.208Z,1005.58
2019-03-09T02:35:02.131Z,1005.53
2019-03-09T02:36:02.046Z,1005.60
2019-03-09T02:37:01.952Z,1005.54
2019-03-09T02:38:01.874Z,1005.54
2019-03-09T02:39:01.783Z,1005.61
2019-03-09T02:40:01.697Z,1005.56
2019-03-09T02:41:01.634Z,1005.56
2019-03-09T02:42:01.526Z,1005.66
2019-03-09T02:43:01.443Z,1005.58
2019-03-09T02:44:01.368Z,1005.57
2019-03-09T02:45:01.289Z,1005.59
2019-03-09T02:46:01.193Z,1005.60
2019-03-09T02:47:01.099Z,1005.58
2019-03-09T02:48:01.026Z,1005.61
2019-03-09T02:49:00.930Z,1005.61
2019-03-09T02:50:00.843Z,1005.55
2019-03-09T02:51:00.790Z,1005.61
2019-03-09T02:52:00.684Z,1005.48
2019-03-09T02:53:00.595Z,1005.51
2019-03-09T02:54:00.514Z,1005.57
2019-03-09T02:55:00.557Z,1005.45
2019-03-09T02:56:00.346Z,1005.49
2019-03-09T02:57:00.258Z,1005.49
2019-03-09T02:58:00.180Z,1005.57
2019-03-09T02:59:00.090Z,1005.56
2019-03-09T03:00:01.250Z,1005.59
2019-03-09T03:00:59.924Z,1005.54
2019-03-09T03:01:59.831Z,1005.58
2019-03-09T03:02:59.741Z,1005.55
2019-03-09T03:03:59.656Z,1005.48
2019-03-09T03:04:59.574Z,1005.46
2019-03-09T03:05:59.499Z,1005.55
2019-03-09T03:06:59.422Z,1005.66
2019-03-09T03:07:59.328Z,1005.60
2019-03-09T03:08:59.232Z,1005.58
2019-03-09T03:09:59.151Z,1005.58
2019-03-09T03:10:59.086Z,1005.70
2019-03-09T03:11:58.976Z,1005.58
2019-03-09T03:12:58.896Z,1005.58
2019-03-09T03:13:58.819Z,1005.56
2019-03-09T03:14:58.726Z,1005.54
2019-03-09T03:15:58.660Z,1005.58
2019-03-09T03:16:58.573Z,1005.57
2019-03-09T03:17:58.468Z,1005.56
2019-03-09T03:18:58.386Z,1005.59
2019-03-09T03:19:58.296Z,1005.53
2019-03-09T03:20:58.217Z,1005.60
2019-03-09T03:21:58.144Z,1005.67
2019-03-09T03:22:58.040Z,1005.64
2019-03-09T03:23:57.979Z,1005.67
2019-03-09T03:24:57.887Z,1005.70
2019-03-09T03:25:57.786Z,1005.65
2019-03-09T03:26:57.732Z,1005.76
2019-03-09T03:27:57.663Z,1005.74
2019-03-09T03:28:57.541Z,1005.74
2019-03-09T03:29:57.451Z,1005.71
2019-03-09T03:30:57.375Z,1005.78
2019-03-09T03:31:57.310Z,1005.76
2019-03-09T03:32:57.193Z,1005.78
2019-03-09T03:33:57.106Z,1005.70
2019-03-09T03:34:57.041Z,1005.58
2019-03-09T03:35:56.936Z,1005.66
2019-03-09T03:36:56.873Z,1005.65
2019-03-09T03:37:56.766Z,1005.68
2019-03-09T03:38:56.689Z,1005.60
2019-03-09T03:39:56.678Z,1005.71
2019-03-09T03:40:56.517Z,1005.63
2019-03-09T03:41:56.449Z,1005.65
2019-03-09T03:42:56.363Z,1005.73
2019-03-09T03:43:56.257Z,1005.61
2019-03-09T03:44:56.181Z,1005.69
2019-03-09T03:45:56.090Z,1005.67
2019-03-09T03:46:56.025Z,1005.68
2019-03-09T03:47:55.928Z,1005.66
2019-03-09T03:48:55.839Z,1005.71
2019-03-09T03:49:55.757Z,1005.70
2019-03-09T03:50:55.669Z,1005.65
2019-03-09T03:51:55.607Z,1005.57
2019-03-09T03:52:55.502Z,1005.68
2019-03-09T03:53:55.415Z,1005.66
2019-03-09T03:54:55.325Z,1005.68
2019-03-09T03:55:55.255Z,1005.67
2019-03-09T03:56:55.171Z,1005.75
2019-03-09T03:57:55.080Z,1005.82
2019-03-09T03:58:54.999Z,1005.84
2019-03-09T03:59:54.916Z,1005.77
2019-03-09T04:00:54.816Z,1005.74
2019-03-09T04:01:54.776Z,1005.68
2019-03-09T04:02:54.647Z,1005.77
2019-03-09T04:03:54.572Z,1005.72
2019-03-09T04:04:54.478Z,1005.68
2019-03-09T04:05:54.409Z,1005.76
2019-03-09T04:06:54.323Z,1005.80
2019-03-09T04:07:54.227Z,1005.87
2019-03-09T04:08:54.144Z,1005.86
2019-03-09T04:09:54.060Z,1005.87
2019-03-09T04:10:53.976Z,1005.81
2019-03-09T04:11:53.910Z,1005.74
2019-03-09T04:12:53.804Z,1005.79
2019-03-09T04:13:53.716Z,1005.79
2019-03-09T04:14:53.636Z,1005.69
2019-03-09T04:15:53.550Z,1005.75
2019-03-09T04:16:53.479Z,1005.77
2019-03-09T04:17:53.386Z,1005.84
2019-03-09T04:18:53.291Z,1005.87
2019-03-09T04:19:53.209Z,1005.92
2019-03-09T04:20:53.128Z,1005.84
2019-03-09T04:21:53.065Z,1005.92
2019-03-09T04:22:52.955Z,1005.88
2019-03-09T04:23:52.874Z,1006.00
2019-03-09T04:24:52.790Z,1005.91
2019-03-09T04:25:52.713Z,1005.98
2019-03-09T04:26:52.628Z,1006.05
2019-03-09T04:27:52.531Z,1006.08
2019-03-09T04:28:52.441Z,1006.11
2019-03-09T04:29:52.362Z,1006.05
2019-03-09T04:30:52.284Z,1006.06
2019-03-09T04:31:52.201Z,1006.15
2019-03-09T04:32:52.124Z,1006.22
2019-03-09T04:33:52.018Z,1006.05
2019-03-09T04:34:51.939Z,1006.24
2019-03-09T04:35:51.877Z,1006.23
2019-03-09T04:36:51.791Z,1006.16
2019-03-09T04:37:51.694Z,1006.19
2019-03-09T04:38:51.597Z,1006.22
2019-03-09T04:39:51.519Z,1006.30
2019-03-09T04:40:51.432Z,1006.32
2019-03-09T04:41:51.357Z,1006.40
2019-03-09T04:42:51.255Z,1006.42
2019-03-09T04:43:51.175Z,1006.40
2019-03-09T04:44:51.083Z,1006.46
2019-03-09T04:45:51.009Z,1006.37
2019-03-09T04:46:50.932Z,1006.51
2019-03-09T04:47:50.835Z,1006.54
2019-03-09T04:48:50.749Z,1006.46
2019-03-09T04:49:50.669Z,1006.48
2019-03-09T04:50:50.580Z,1006.49
2019-03-09T04:51:50.493Z,1006.35
2019-03-09T04:52:50.434Z,1006.44
2019-03-09T04:53:50.322Z,1006.46
2019-03-09T04:54:50.238Z,1006.53
2019-03-09T04:55:50.156Z,1006.47
2019-03-09T04:56:50.084Z,1006.51
2019-03-09T04:57:50.000Z,1006.58
2019-03-09T04:58:49.906Z,1006.57
2019-03-09T04:59:49.821Z,1006.54
2019-03-09T05:00:49.739Z,1006.66
2019-03-09T05:01:49.650Z,1006.72
2019-03-09T05:02:49.586Z,1006.80
2019-03-09T05:03:49.478Z,1006.79
2019-03-09T05:04:49.391Z,1006.79
2019-03-09T05:05:49.311Z,1006.77
2019-03-09T05:06:49.222Z,1006.78
2019-03-09T05:07:49.151Z,1006.84
2019-03-09T05:08:49.063Z,1006.77
2019-03-09T05:09:48.976Z,1006.81
2019-03-09T05:10:48.893Z,1006.76
2019-03-09T05:11:48.800Z,1006.77
2019-03-09T05:12:48.743Z,1006.77
2019-03-09T05:13:48.631Z,1006.72
2019-03-09T05:14:48.552Z,1006.73
2019-03-09T05:15:48.460Z,1006.74
2019-03-09T05:16:48.386Z,1006.76
2019-03-09T05:17:48.304Z,1006.70
2019-03-09T05:18:48.208Z,1006.61
2019-03-09T05:19:48.127Z,1006.76
2019-03-09T05:20:48.046Z,1006.71
2019-03-09T05:21:47.954Z,1006.75
2019-03-09T05:22:47.883Z,1006.75
2019-03-09T05:23:47.791Z,1006.83
2019-03-09T05:24:47.704Z,1006.88
2019-03-09T05:25:47.635Z,1006.90
2019-03-09T05:26:47.535Z,1006.90
2019-03-09T05:27:47.478Z,1006.95
2019-03-09T05:28:47.364Z,1006.90
2019-03-09T05:29:47.287Z,1007.03
2019-03-09T05:30:47.207Z,1007.07
2019-03-09T05:31:47.117Z,1007.06
2019-03-09T05:32:47.050Z,1007.19
2019-03-09T05:33:46.947Z,1007.18
2019-03-09T05:34:46.867Z,1007.18
2019-03-09T05:35:46.791Z,1007.16
2019-03-09T05:36:46.688Z,1007.25
2019-03-09T05:37:46.627Z,1007.23
2019-03-09T05:38:46.520Z,1007.29
2019-03-09T05:39:46.441Z,1007.34
2019-03-09T05:40:46.354Z,1007.34
2019-03-09T05:41:46.295Z,1007.34
2019-03-09T05:42:46.196Z,1007.36
2019-03-09T05:43:46.107Z,1007.37
2019-03-09T05:44:46.013Z,1007.33
2019-03-09T05:45:45.947Z,1007.30
2019-03-09T05:46:45.845Z,1007.31
2019-03-09T05:47:45.789Z,1007.32
2019-03-09T05:48:45.687Z,1007.40
2019-03-09T05:49:45.593Z,1007.41
2019-03-09T05:50:45.506Z,1007.42
2019-03-09T05:51:45.426Z,1007.41
2019-03-09T05:52:45.352Z,1007.40
2019-03-09T05:53:45.270Z,1007.38
2019-03-09T05:54:45.171Z,1007.34
2019-03-09T05:55:45.095Z,1007.25
2019-03-09T05:56:45.002Z,1007.22
2019-03-09T05:57:44.937Z,1007.15
2019-03-09T05:58:44.835Z,1007.03
2019-03-09T05:59:44.753Z,1007.07
2019-03-09T06:00:44.663Z,1007.02
2019-03-09T06:01:44.586Z,1006.99
2019-03-09T06:02:44.518Z,1006.96
2019-03-09T06:03:44.417Z,1006.98
2019-03-09T06:04:44.346Z,1007.02
2019-03-09T06:05:44.258Z,1007.09
2019-03-09T06:06:44.157Z,1007.12
2019-03-09T06:07:44.094Z,1007.09
2019-03-09T06:08:43.990Z,1007.12
2019-03-09T06:09:43.901Z,1007.14
2019-03-09T06:10:43.830Z,1007.07
2019-03-09T06:11:43.734Z,1007.06
2019-03-09T06:12:43.676Z,1007.10
2019-03-09T06:13:43.594Z,1007.11
2019-03-09T06:14:43.496Z,1007.12
2019-03-09T06:15:43.413Z,1007.13
2019-03-09T06:16:43.319Z,1007.23
2019-03-09T06:17:43.245Z,1007.27
2019-03-09T06:18:43.145Z,1007.31
2019-03-09T06:19:43.078Z,1007.35
2019-03-09T06:20:42.986Z,1007.41
2019-03-09T06:21:42.890Z,1007.41
2019-03-09T06:22:42.845Z,1007.38
2019-03-09T06:23:42.729Z,1007.41
2019-03-09T06:24:42.639Z,1007.40
2019-03-09T06:25:42.556Z,1007.42
2019-03-09T06:26:42.472Z,1007.43
2019-03-09T06:27:42.391Z,1007.48
2019-03-09T06:28:42.321Z,1007.52
2019-03-09T06:29:42.215Z,1007.58
2019-03-09T06:30:42.145Z,1007.63
2019-03-09T06:31:42.052Z,1007.78
2019-03-09T06:32:41.967Z,1007.84
2019-03-09T06:33:41.901Z,1007.91
2019-03-09T06:34:41.793Z,1008.02
2019-03-09T06:35:41.717Z,1008.07
2019-03-09T06:36:41.628Z,1008.06
2019-03-09T06:37:41.550Z,1008.05
2019-03-09T06:38:41.468Z,1008.17
2019-03-09T06:39:41.378Z,1008.13
2019-03-09T06:40:41.301Z,1008.15
2019-03-09T06:41:41.203Z,1008.13
2019-03-09T06:42:41.120Z,1008.13
2019-03-09T06:43:41.062Z,1008.26
2019-03-09T06:44:40.952Z,1008.26
2019-03-09T06:45:40.877Z,1008.25
2019-03-09T06:46:40.792Z,1008.20
2019-03-09T06:47:40.709Z,1008.23
2019-03-09T06:48:40.628Z,1008.28
2019-03-09T06:49:40.557Z,1008.23
2019-03-09T06:50:40.476Z,1008.25
2019-03-09T06:51:40.378Z,1008.30
2019-03-09T06:52:40.291Z,1008.28
2019-03-09T06:53:40.226Z,1008.27
2019-03-09T06:54:40.108Z,1008.35
2019-03-09T06:55:40.030Z,1008.37
2019-03-09T06:56:39.951Z,1008.42
2019-03-09T06:57:39.859Z,1008.48
2019-03-09T06:58:39.805Z,1008.47
2019-03-09T06:59:39.708Z,1008.52
2019-03-09T07:00:39.610Z,1008.48
2019-03-09T07:01:39.527Z,1008.51
2019-03-09T07:02:39.446Z,1008.49
2019-03-09T07:03:39.378Z,1008.46
2019-03-09T07:04:39.274Z,1008.44
2019-03-09T07:05:39.190Z,1008.43
2019-03-09T07:06:39.113Z,1008.42
2019-03-09T07:07:39.041Z,1008.38
2019-03-09T07:08:39.555Z,1008.38
2019-03-09T07:09:38.864Z,1008.39
2019-03-09T07:10:38.774Z,1008.43
2019-03-09T07:11:38.700Z,1008.45
2019-03-09T07:12:38.603Z,1008.45
2019-03-09T07:13:38.561Z,1008.40
2019-03-09T07:14:38.437Z,1008.48
2019-03-09T07:15:38.356Z,1008.43
2019-03-09T07:16:38.289Z,1008.46
2019-03-09T07:17:38.194Z,1008.50
2019-03-09T07:18:38.127Z,1008.54
2019-03-09T07:19:38.037Z,1008.53
2019-03-09T07:20:37.940Z,1008.51
2019-03-09T07:21:37.851Z,1008.48
2019-03-09T07:22:37.776Z,1008.49
2019-03-09T07:23:37.698Z,1008.52
2019-03-09T07:24:37.616Z,1008.59
2019-03-09T07:25:37.527Z,1008.55
2019-03-09T07:26:37.433Z,1008.64
2019-03-09T07:27:37.356Z,1008.59
2019-03-09T07:28:37.280Z,1008.68
2019-03-09T07:29:37.406Z,1008.67
2019-03-09T07:30:37.097Z,1008.70
2019-03-09T07:31:37.021Z,1008.71
2019-03-09T07:32:37.014Z,1008.72
2019-03-09T07:33:36.874Z,1008.72
2019-03-09T07:34:36.768Z,1008.84
2019-03-09T07:35:36.831Z,1008.84
2019-03-09T07:36:36.596Z,1008.85
2019-03-09T07:37:37.106Z,1008.88
2019-03-09T07:38:36.447Z,1008.87
2019-03-09T07:39:36.447Z,1008.93
2019-03-09T07:40:36.267Z,1008.93
2019-03-09T07:41:36.182Z,1008.94
2019-03-09T07:42:36.152Z,1008.96
2019-03-09T07:43:36.034Z,1008.92
2019-03-09T07:44:35.926Z,1008.92
2019-03-09T07:45:35.948Z,1008.92
2019-03-09T07:46:35.758Z,1008.94
2019-03-09T07:47:35.678Z,1008.90
2019-03-09T07:48:35.691Z,1008.85
2019-03-09T07:49:35.508Z,1008.81
2019-03-09T07:50:35.435Z,1008.89
2019-03-09T07:51:35.378Z,1008.89
2019-03-09T07:52:35.260Z,1008.87
2019-03-09T07:53:35.195Z,1008.85
2019-03-09T07:54:35.195Z,1008.87
2019-03-09T07:55:35.012Z,1008.84
2019-03-09T07:56:35.003Z,1008.80
2019-03-09T07:57:34.850Z,1008.78
2019-03-09T07:58:34.845Z,1008.83
2019-03-09T07:59:34.683Z,1008.80
2019-03-09T08:00:34.629Z,1008.79
2019-03-09T08:01:34.504Z,1008.81
2019-03-09T08:02:34.428Z,1008.83
2019-03-09T08:03:34.468Z,1008.83
2019-03-09T08:04:34.259Z,1008.92
2019-03-09T08:05:34.186Z,1008.93
2019-03-09T08:06:34.153Z,1008.93
2019-03-09T08:07:34.013Z,1008.95
2019-03-09T08:08:35.006Z,1009.04
2019-03-09T08:09:33.854Z,1009.09
2019-03-09T08:10:33.762Z,1009.05
2019-03-09T08:11:33.780Z,1009.08
2019-03-09T08:12:33.602Z,1009.09
2019-03-09T08:13:33.509Z,1009.12
2019-03-09T08:14:34.446Z,1009.15
2019-03-09T08:15:33.340Z,1009.24
2019-03-09T08:16:35.683Z,1009.17
2019-03-09T08:17:33.187Z,1009.23
2019-03-09T08:18:33.091Z,1009.24
2019-03-09T08:19:33.020Z,1009.25
2019-03-09T08:20:33.945Z,1009.32
2019-03-09T08:21:32.847Z,1009.18
2019-03-09T08:22:32.839Z,1009.26
2019-03-09T08:23:32.684Z,1009.23
2019-03-09T08:24:32.618Z,1009.24
2019-03-09T08:25:32.511Z,1009.24
2019-03-09T08:26:32.442Z,1009.19
2019-03-09T08:27:32.347Z,1009.28
2019-03-09T08:28:32.365Z,1009.26
2019-03-09T08:29:32.195Z,1009.18
2019-03-09T08:30:32.169Z,1009.13
2019-03-09T08:31:32.011Z,1009.11
2019-03-09T08:32:31.949Z,1009.12
2019-03-09T08:33:31.853Z,1009.01
2019-03-09T08:34:31.822Z,1008.97
2019-03-09T08:35:31.686Z,1008.96
2019-03-09T08:36:31.716Z,1008.88
2019-03-09T08:37:31.517Z,1008.83
2019-03-09T08:38:31.525Z,1008.81
2019-03-09T08:39:31.393Z,1008.80
2019-03-09T08:40:31.317Z,1008.76
2019-03-09T08:41:31.869Z,1008.66
2019-03-09T08:42:31.131Z,1008.69
2019-03-09T08:43:31.167Z,1008.71
2019-03-09T08:44:30.950Z,1008.74
2019-03-09T08:45:30.849Z,1008.88
2019-03-09T08:46:30.949Z,1008.79
2019-03-09T08:47:30.693Z,1008.74
2019-03-09T08:48:30.602Z,1008.91
2019-03-09T08:49:30.813Z,1008.99
2019-03-09T08:50:30.445Z,1009.02
2019-03-09T08:51:30.359Z,1009.02
2019-03-09T08:52:30.377Z,1009.13
2019-03-09T08:53:31.289Z,1009.14
2019-03-09T08:54:30.145Z,1009.17
2019-03-09T08:55:30.189Z,1009.12
2019-03-09T08:56:29.939Z,1009.13
2019-03-09T08:57:30.012Z,1009.14
2019-03-09T08:58:29.768Z,1009.13
2019-03-09T08:59:29.840Z,1009.13
2019-03-09T09:00:30.492Z,1009.22
2019-03-09T09:01:29.536Z,1009.30
2019-03-09T09:02:29.623Z,1009.31
2019-03-09T09:03:29.353Z,1009.43
2019-03-09T09:04:29.284Z,1009.43
2019-03-09T09:05:29.231Z,1009.43
2019-03-09T09:06:29.107Z,1009.42
2019-03-09T09:07:29.254Z,1009.46
2019-03-09T09:08:28.947Z,1009.47
2019-03-09T09:09:29.101Z,1009.43
2019-03-09T09:10:28.773Z,1009.38
2019-03-09T09:11:28.691Z,1009.39
2019-03-09T09:12:28.772Z,1009.36
2019-03-09T09:13:28.529Z,1009.24
2019-03-09T09:14:28.456Z,1009.22
2019-03-09T09:15:28.484Z,1009.18
2019-03-09T09:16:28.305Z,1009.17
2019-03-09T09:17:28.884Z,1009.12
2019-03-09T09:18:28.298Z,1009.23
2019-03-09T09:19:31.321Z,1009.25
2019-03-09T09:20:29.326Z,1009.28
2019-03-09T09:21:27.904Z,1009.25
2019-03-09T09:22:27.781Z,1009.22
2019-03-09T09:23:27.705Z,1009.10
2019-03-09T09:24:27.760Z,1009.15
2019-03-09T09:25:27.541Z,1009.13
2019-03-09T09:26:27.452Z,1009.00
2019-03-09T09:27:27.544Z,1008.95
2019-03-09T09:28:27.286Z,1008.96
2019-03-09T09:29:27.238Z,1008.93
2019-03-09T09:30:27.148Z,1008.93
2019-03-09T09:31:27.047Z,1008.91
2019-03-09T09:32:26.962Z,1008.97
2019-03-09T09:33:26.961Z,1008.97
2019-03-09T09:34:26.788Z,1009.06
2019-03-09T09:35:26.801Z,1009.03
2019-03-09T09:36:26.621Z,1009.08
2019-03-09T09:37:26.540Z,1009.13
2019-03-09T09:38:26.585Z,1009.10
2019-03-09T09:39:26.378Z,1008.98
2019-03-09T09:40:26.329Z,1008.96
2019-03-09T09:41:26.223Z,1009.08
2019-03-09T09:42:26.135Z,1009.09
2019-03-09T09:43:26.208Z,1009.19
2019-03-09T09:44:25.962Z,1009.18
2019-03-09T09:45:25.958Z,1009.34
2019-03-09T09:46:25.801Z,1009.39
2019-03-09T09:47:25.716Z,1009.35
2019-03-09T09:48:25.741Z,1009.40
2019-03-09T09:49:25.550Z,1009.33
2019-03-09T09:50:25.479Z,1009.43
2019-03-09T09:51:27.398Z,1009.39
2019-03-09T09:52:25.302Z,1009.34
2019-03-09T09:53:25.252Z,1009.33
2019-03-09T09:54:25.167Z,1009.28
2019-03-09T09:55:25.078Z,1009.37
2019-03-09T09:56:24.982Z,1009.41
2019-03-09T09:57:25.906Z,1009.47
2019-03-09T09:58:24.813Z,1009.37
2019-03-09T09:59:24.728Z,1009.32
2019-03-09T10:00:24.731Z,1009.27
2019-03-09T10:01:24.567Z,1009.24
2019-03-09T10:02:24.499Z,1009.22
2019-03-09T10:03:25.437Z,1009.26
2019-03-09T10:04:24.324Z,1009.19
2019-03-09T10:05:24.364Z,1009.16
2019-03-09T10:06:24.158Z,1009.11
2019-03-09T10:07:24.068Z,1008.99
2019-03-09T10:08:24.038Z,1008.98
2019-03-09T10:09:23.912Z,1008.88
2019-03-09T10:10:23.840Z,1008.92
2019-03-09T10:11:23.852Z,1009.08
2019-03-09T10:12:23.658Z,1009.02
2019-03-09T10:13:23.579Z,1009.15
2019-03-09T10:14:23.575Z,1009.29
2019-03-09T10:15:23.423Z,1009.20
2019-03-09T10:16:23.340Z,1009.13
2019-03-09T10:17:23.255Z,1009.27
2019-03-09T10:18:23.164Z,1009.29
2019-03-09T10:19:23.089Z,1009.34
2019-03-09T10:20:23.021Z,1009.26
2019-03-09T10:21:22.928Z,1009.44
2019-03-09T10:22:22.837Z,1009.47
2019-03-09T10:23:22.777Z,1009.63
2019-03-09T10:24:22.673Z,1009.66
2019-03-09T10:25:22.613Z,1009.66
2019-03-09T10:26:25.677Z,1009.70
2019-03-09T10:27:22.430Z,1009.53
2019-03-09T10:28:22.351Z,1009.45
2019-03-09T10:29:22.285Z,1009.50
2019-03-09T10:30:22.219Z,1009.37
2019-03-09T10:31:22.110Z,1009.28
2019-03-09T10:32:22.021Z,1009.21
2019-03-09T10:33:24.177Z,1009.16
2019-03-09T10:34:21.864Z,1009.17
2019-03-09T10:35:21.794Z,1009.14
2019-03-09T10:36:21.695Z,1009.24
2019-03-09T10:37:21.630Z,1009.24
2019-03-09T10:38:21.550Z,1009.38
2019-03-09T10:39:21.453Z,1009.35
2019-03-09T10:40:21.399Z,1009.27
2019-03-09T10:41:21.288Z,1009.22
2019-03-09T10:42:21.206Z,1009.17
2019-03-09T10:43:21.140Z,1009.12
2019-03-09T10:44:21.053Z,1009.06
2019-03-09T10:45:20.979Z,1009.01
2019-03-09T10:46:20.888Z,1008.94
2019-03-09T10:47:20.805Z,1008.93
2019-03-09T10:48:20.717Z,1008.78
2019-03-09T10:49:20.653Z,1008.75
2019-03-09T10:50:20.579Z,1008.76
2019-03-09T10:51:20.481Z,1008.66
2019-03-09T10:52:20.405Z,1008.82
2019-03-09T10:53:20.315Z,1008.78
2019-03-09T10:54:20.231Z,1008.77
2019-03-09T10:55:20.294Z,1008.63
2019-03-09T10:56:20.069Z,1008.68
2019-03-09T10:57:19.987Z,1008.71
2019-03-09T10:58:21.933Z,1008.80
2019-03-09T10:59:19.839Z,1008.81
2019-03-09T11:00:19.744Z,1008.76
2019-03-09T11:01:19.828Z,1008.87
2019-03-09T11:02:19.606Z,1008.79
2019-03-09T11:03:19.497Z,1008.71
2019-03-09T11:04:27.661Z,1008.68
2019-03-09T11:05:19.332Z,1008.71
2019-03-09T11:06:19.320Z,1008.72
2019-03-09T11:07:19.227Z,1008.58
2019-03-09T11:08:19.090Z,1008.62
2019-03-09T11:09:19.007Z,1008.49
2019-03-09T11:10:19.969Z,1008.41
2019-03-09T11:11:18.868Z,1008.37
2019-03-09T11:12:18.764Z,1008.64
2019-03-09T11:13:18.814Z,1008.66
2019-03-09T11:14:18.601Z,1008.74
2019-03-09T11:15:18.523Z,1008.78
2019-03-09T11:16:18.664Z,1008.81
2019-03-09T11:17:18.359Z,1008.85
2019-03-09T11:18:18.279Z,1008.96
2019-03-09T11:19:18.240Z,1008.95
2019-03-09T11:20:18.112Z,1008.89
2019-03-09T11:21:18.079Z,1008.87
2019-03-09T11:22:17.949Z,1008.90
2019-03-09T11:23:18.063Z,1008.95
2019-03-09T11:24:17.792Z,1008.78
2019-03-09T11:25:17.869Z,1008.73
2019-03-09T11:26:17.634Z,1008.73
2019-03-09T11:27:17.560Z,1008.76
2019-03-09T11:28:17.473Z,1008.57
2019-03-09T11:29:17.390Z,1008.74
2019-03-09T11:30:17.312Z,1008.65
2019-03-09T11:31:17.230Z,1008.66
2019-03-09T11:32:17.144Z,1008.67
2019-03-09T11:33:17.086Z,1008.67
2019-03-09T11:34:16.974Z,1008.64
2019-03-09T11:35:16.910Z,1008.62
2019-03-09T11:36:16.838Z,1008.64
2019-03-09T11:37:16.740Z,1008.53
2019-03-09T11:38:16.648Z,1008.54
2019-03-09T11:39:16.593Z,1008.56
2019-03-09T11:40:16.495Z,1008.52
2019-03-09T11:41:19.335Z,1008.45
2019-03-09T11:42:16.327Z,1008.33
2019-03-09T11:43:16.256Z,1008.36
2019-03-09T11:44:16.170Z,1008.47
2019-03-09T11:45:16.086Z,1008.65
2019-03-09T11:46:16.018Z,1008.74
2019-03-09T11:47:15.922Z,1008.60
2019-03-09T11:48:15.832Z,1008.59
2019-03-09T11:49:15.755Z,1008.54
2019-03-09T11:50:15.679Z,1008.44
2019-03-09T11:51:15.609Z,1008.43
2019-03-09T11:52:20.148Z,1008.25
2019-03-09T11:53:15.443Z,1008.04
2019-03-09T11:54:15.353Z,1007.97
2019-03-09T11:55:15.275Z,1008.09
2019-03-09T11:56:15.204Z,1008.07
2019-03-09T11:57:15.119Z,1008.16
2019-03-09T11:58:15.023Z,1008.29
2019-03-09T11:59:14.950Z,1008.05
2019-03-09T12:00:14.863Z,1008.10
2019-03-09T12:01:14.795Z,1007.86
2019-03-09T12:02:14.699Z,1007.82
2019-03-09T12:03:14.628Z,1007.86
2019-03-09T12:04:14.541Z,1007.71